Time;durP1;ratioP1;P1;durP2;ratioP2;P2;SDS_P1;SDS_P2;PMS_P1;PMS_P2;Temp;Humidity;BMP_temperature;BMP_pressure;BME280_temperature;BME280_humidity;BME280_pressure;Samples;Min_cycle;Max_cycle;Signal;HPM_P1;HPM_P2
2022/10/08 00:01:10;;;;;;;369.00;17.58;;;;;;;;;;4963573;28;20051;-69
2022/10/08 00:03:38;;;;;;;138.82;15.63;;;;;;;;;;4963453;28;20055;-70
2022/10/08 00:06:06;;;;;;;173.73;16.70;;;;;;;;;;4962977;28;20105;-71
2022/10/08 00:08:39;;;;;;;64.05;14.15;;;;;;;;;;4963963;28;20046;-68
2022/10/08 00:11:07;;;;;;;45.35;12.80;;;;;;;;;;4962913;28;20047;-69
2022/10/08 00:13:41;;;;;;;95.05;13.07;;;;;;;;;;4963560;28;20050;-70
2022/10/08 00:16:13;;;;;;;94.35;12.93;;;;;;;;;;4963174;28;20443;-70
2022/10/08 00:18:43;;;;;;;82.45;12.45;;;;;;;;;;4962976;28;20652;-69
2022/10/08 00:21:15;;;;;;;169.18;14.07;;;;;;;;;;4962830;28;20042;-71
2022/10/08 00:23:46;;;;;;;191.98;14.38;;;;;;;;;;4963351;28;20049;-71
2022/10/08 00:26:12;;;;;;;84.40;11.38;;;;;;;;;;4963412;28;20071;-69
2022/10/08 00:28:42;;;;;;;32.75;12.20;;;;;;;;;;4945681;28;20061;-71
2022/10/08 00:31:13;;;;;;;207.07;17.55;;;;;;;;;;4963027;28;20066;-69
2022/10/08 00:33:39;;;;;;;38.13;12.55;;;;;;;;;;4963233;28;20043;-70
2022/10/08 00:36:08;;;;;;;231.63;17.83;;;;;;;;;;4963126;28;20047;-69
2022/10/08 00:38:35;;;;;;;22.58;12.05;;;;;;;;;;4962826;28;20038;-72
2022/10/08 00:41:01;;;;;;;137.30;13.23;;;;;;;;;;4962241;28;20057;-71
2022/10/08 00:43:48;;;;;;;296.73;17.23;;;;;;;;;;4962841;28;20050;-71
2022/10/08 00:46:24;;;;;;;68.07;12.63;;;;;;;;;;4963243;28;20064;-70
2022/10/08 00:48:55;;;;;;;20.15;10.88;;;;;;;;;;4962665;28;20039;-71
2022/10/08 00:51:22;;;;;;;29.98;11.43;;;;;;;;;;4962283;28;20046;-69
2022/10/08 00:53:48;;;;;;;142.82;12.23;;;;;;;;;;4962536;28;21074;-69
2022/10/08 00:56:14;;;;;;;65.32;13.07;;;;;;;;;;4962881;28;20051;-69
2022/10/08 00:58:41;;;;;;;155.13;13.50;;;;;;;;;;4964034;28;20057;-71
2022/10/08 01:01:07;;;;;;;340.08;14.13;;;;;;;;;;4962029;28;20058;-69
2022/10/08 01:03:32;;;;;;;79.45;10.88;;;;;;;;;;4962643;28;20105;-70
2022/10/08 01:06:00;;;;;;;48.95;10.38;;;;;;;;;;4962516;28;20042;-69
2022/10/08 01:08:52;;;;;;;24.85;10.18;;;;;;;;;;4962779;28;20910;-71
2022/10/08 01:11:24;;;;;;;241.20;12.68;;;;;;;;;;4943893;28;20059;-69
2022/10/08 01:14:04;;;;;;;63.20;11.50;;;;;;;;;;4962521;28;20064;-71
2022/10/08 01:17:01;;;;;;;23.73;9.75;;;;;;;;;;4962624;28;20144;-71
2022/10/08 01:19:46;;;;;;;241.82;14.32;;;;;;;;;;4918453;28;20046;-71
2022/10/08 01:22:41;;;;;;;21.40;10.50;;;;;;;;;;4961597;28;20503;-68
2022/10/08 01:25:31;;;;;;;39.50;10.43;;;;;;;;;;4961654;28;20101;-70
2022/10/08 01:28:09;;;;;;;54.17;10.40;;;;;;;;;;4962653;28;20051;-71
2022/10/08 01:30:40;;;;;;;60.00;10.98;;;;;;;;;;4962538;28;20129;-70
2022/10/08 01:33:29;;;;;;;48.65;9.98;;;;;;;;;;4959866;28;20061;-68
2022/10/08 01:35:58;;;;;;;223.93;12.68;;;;;;;;;;4960443;28;20053;-68
2022/10/08 01:38:28;;;;;;;59.95;10.32;;;;;;;;;;4960260;28;20428;-68
2022/10/08 01:40:58;;;;;;;35.35;8.90;;;;;;;;;;4955332;28;20053;-68
2022/10/08 01:43:25;;;;;;;18.23;7.97;;;;;;;;;;4960845;28;20454;-68
2022/10/08 01:45:55;;;;;;;29.88;8.45;;;;;;;;;;4961940;28;20050;-68
2022/10/08 01:48:26;;;;;;;15.45;7.85;;;;;;;;;;4962151;28;20499;-69
2022/10/08 01:51:01;;;;;;;94.03;9.48;;;;;;;;;;4961502;28;20057;-69
2022/10/08 01:53:32;;;;;;;33.03;8.02;;;;;;;;;;4961313;28;20046;-69
2022/10/08 01:56:00;;;;;;;135.77;9.50;;;;;;;;;;4961652;28;20057;-68
2022/10/08 01:58:55;;;;;;;43.30;7.88;;;;;;;;;;4961618;28;20097;-68
2022/10/08 02:01:27;;;;;;;40.28;7.63;;;;;;;;;;4902727;28;20086;-68
2022/10/08 02:06:42;;;;;;;40.58;7.43;;;;;;;;;;4961541;28;19951;-68
2022/10/08 02:09:09;;;;;;;34.07;8.30;;;;;;;;;;4964843;28;20086;-68
2022/10/08 02:11:34;;;;;;;68.78;8.48;;;;;;;;;;4965873;28;20670;-68
2022/10/08 02:14:00;;;;;;;22.13;7.68;;;;;;;;;;4965903;28;20109;-68
2022/10/08 02:16:28;;;;;;;15.48;7.53;;;;;;;;;;4964671;28;20948;-68
2022/10/08 02:19:06;;;;;;;13.43;7.35;;;;;;;;;;4965165;28;20047;-68
2022/10/08 02:21:33;;;;;;;7.70;7.00;;;;;;;;;;4965764;28;20062;-68
2022/10/08 02:24:21;;;;;;;12.07;7.35;;;;;;;;;;4947893;28;20496;-69
2022/10/08 02:26:50;;;;;;;9.05;7.18;;;;;;;;;;4964312;28;20129;-69
2022/10/08 02:29:40;;;;;;;85.70;8.63;;;;;;;;;;4965377;28;20054;-69
2022/10/08 02:32:19;;;;;;;19.33;7.22;;;;;;;;;;4965605;28;20078;-68
2022/10/08 02:34:51;;;;;;;33.65;7.55;;;;;;;;;;4964671;28;20050;-70
2022/10/08 02:37:21;;;;;;;11.73;8.82;;;;;;;;;;4964653;28;20065;-69
2022/10/08 02:39:57;;;;;;;27.38;9.48;;;;;;;;;;4965415;28;20058;-68
2022/10/08 02:42:25;;;;;;;34.25;8.13;;;;;;;;;;4965414;28;20565;-69
2022/10/08 02:45:06;;;;;;;30.92;8.05;;;;;;;;;;4965629;28;20061;-69
2022/10/08 02:47:34;;;;;;;23.88;9.65;;;;;;;;;;4965494;28;20451;-69
2022/10/08 02:50:03;;;;;;;11.80;9.40;;;;;;;;;;4964396;28;20050;-69
2022/10/08 02:52:34;;;;;;;88.60;11.35;;;;;;;;;;4964923;28;20604;-70
2022/10/08 02:55:03;;;;;;;25.77;10.52;;;;;;;;;;4964296;28;20046;-69
2022/10/08 02:57:32;;;;;;;32.25;8.60;;;;;;;;;;4939911;28;20125;-68
2022/10/08 02:59:58;;;;;;;229.00;12.98;;;;;;;;;;4964617;28;20496;-68
2022/10/08 03:02:31;;;;;;;103.72;10.05;;;;;;;;;;4965188;28;20054;-68
2022/10/08 03:05:01;;;;;;;46.75;9.27;;;;;;;;;;4964470;28;20416;-68
2022/10/08 03:07:29;;;;;;;18.48;8.40;;;;;;;;;;4965006;28;20043;-68
2022/10/08 03:09:56;;;;;;;26.38;9.70;;;;;;;;;;4964796;28;20085;-68
2022/10/08 03:12:24;;;;;;;17.38;8.30;;;;;;;;;;4964215;28;20252;-68
2022/10/08 03:14:51;;;;;;;21.25;6.63;;;;;;;;;;4964086;28;20047;-68
2022/10/08 03:17:23;;;;;;;6.57;5.97;;;;;;;;;;4964838;28;20504;-68
2022/10/08 03:19:48;;;;;;;;;;;;;;;;;;4965138;28;20046;-68
2022/10/08 03:22:14;;;;;;;74.93;7.57;;;;;;;;;;4963559;28;19925;-68
2022/10/08 03:24:39;;;;;;;261.05;12.13;;;;;;;;;;4964491;28;20043;-68
2022/10/08 03:27:04;;;;;;;36.97;7.47;;;;;;;;;;4963782;28;20594;-68
2022/10/08 03:29:30;;;;;;;23.45;7.22;;;;;;;;;;4964342;28;20118;-69
2022/10/08 03:31:55;;;;;;;46.75;8.18;;;;;;;;;;4964294;28;20089;-69
2022/10/08 03:34:24;;;;;;;8.90;6.38;;;;;;;;;;4963498;28;20050;-68
2022/10/08 03:36:49;;;;;;;15.50;6.72;;;;;;;;;;4963668;28;20050;-68
2022/10/08 03:39:14;;;;;;;11.18;6.88;;;;;;;;;;4962523;28;20061;-69
2022/10/08 03:41:40;;;;;;;9.52;6.38;;;;;;;;;;4963480;28;20046;-69
2022/10/08 03:44:08;;;;;;;6.53;5.93;;;;;;;;;;4963180;28;20061;-70
2022/10/08 03:46:33;;;;;;;6.70;6.10;;;;;;;;;;4964154;28;20898;-69
2022/10/08 03:48:59;;;;;;;22.13;6.60;;;;;;;;;;4963737;28;20050;-69
2022/10/08 03:51:24;;;;;;;8.85;6.78;;;;;;;;;;4964026;28;20081;-69
2022/10/08 03:53:49;;;;;;;19.27;7.10;;;;;;;;;;4961653;28;20047;-69
2022/10/08 03:56:23;;;;;;;6.82;6.13;;;;;;;;;;4962665;28;20050;-70
2022/10/08 03:58:55;;;;;;;6.47;5.88;;;;;;;;;;4963256;28;20152;-69
2022/10/08 04:01:21;;;;;;;6.60;5.50;;;;;;;;;;4964375;28;20109;-69
2022/10/08 04:03:46;;;;;;;5.97;5.47;;;;;;;;;;4963508;28;20054;-69
2022/10/08 04:06:12;;;;;;;6.30;5.80;;;;;;;;;;4962962;28;20050;-68
2022/10/08 04:08:37;;;;;;;10.48;6.18;;;;;;;;;;4963833;28;20137;-69
2022/10/08 04:11:05;;;;;;;6.32;5.80;;;;;;;;;;4963397;28;20070;-68
2022/10/08 04:13:30;;;;;;;6.13;5.63;;;;;;;;;;4963498;28;20484;-69
2022/10/08 04:16:04;;;;;;;10.43;5.70;;;;;;;;;;4963295;28;20105;-69
2022/10/08 04:18:30;;;;;;;7.03;6.10;;;;;;;;;;4962814;28;20146;-69
2022/10/08 04:20:57;;;;;;;6.55;5.93;;;;;;;;;;4963243;28;20138;-69
2022/10/08 04:23:22;;;;;;;6.38;5.82;;;;;;;;;;4963895;28;20492;-68
2022/10/08 04:25:50;;;;;;;5.93;5.32;;;;;;;;;;4963174;28;20054;-69
2022/10/08 04:28:16;;;;;;;5.03;4.63;;;;;;;;;;4962688;28;20042;-68
2022/10/08 04:30:41;;;;;;;5.60;5.13;;;;;;;;;;4962765;28;20348;-69
2022/10/08 04:33:06;;;;;;;9.55;6.25;;;;;;;;;;4962808;28;20046;-69
2022/10/08 04:35:36;;;;;;;6.40;5.90;;;;;;;;;;4963077;28;20038;-68
2022/10/08 04:38:01;;;;;;;7.28;5.90;;;;;;;;;;4963028;28;20057;-68
2022/10/08 04:40:27;;;;;;;5.65;5.15;;;;;;;;;;4962476;28;20046;-68
2022/10/08 04:42:52;;;;;;;7.10;5.05;;;;;;;;;;4962305;28;20097;-70
2022/10/08 04:45:18;;;;;;;7.60;4.95;;;;;;;;;;4959958;28;20050;-69
2022/10/08 04:47:43;;;;;;;5.88;5.22;;;;;;;;;;4958986;28;20038;-69
2022/10/08 04:50:08;;;;;;;7.15;4.80;;;;;;;;;;4961616;28;20419;-71
2022/10/08 04:52:34;;;;;;;5.10;4.60;;;;;;;;;;4961986;28;20081;-69
2022/10/08 04:54:59;;;;;;;5.43;4.70;;;;;;;;;;4961227;28;20129;-69
2022/10/08 04:57:25;;;;;;;4.50;4.20;;;;;;;;;;4962133;28;20069;-71
2022/10/08 04:59:50;;;;;;;5.65;4.22;;;;;;;;;;4961907;28;20046;-68
2022/10/08 05:02:15;;;;;;;6.50;4.45;;;;;;;;;;4943508;28;20149;-70
2022/10/08 05:04:41;;;;;;;4.80;4.40;;;;;;;;;;4961876;28;20054;-69
2022/10/08 05:07:06;;;;;;;4.60;4.20;;;;;;;;;;4960525;28;20443;-69
2022/10/08 05:09:32;;;;;;;4.15;3.83;;;;;;;;;;4956862;28;20055;-69
2022/10/08 05:11:57;;;;;;;4.85;4.32;;;;;;;;;;4961373;28;20412;-69
2022/10/08 05:14:23;;;;;;;5.90;4.80;;;;;;;;;;4962042;28;20966;-70
2022/10/08 05:16:48;;;;;;;4.90;4.43;;;;;;;;;;4959681;28;20051;-70
2022/10/08 05:19:14;;;;;;;4.72;4.32;;;;;;;;;;4962047;28;20057;-69
2022/10/08 05:21:39;;;;;;;10.13;4.57;;;;;;;;;;4962489;28;20815;-69
2022/10/08 05:24:07;;;;;;;6.95;4.13;;;;;;;;;;4961377;28;20051;-69
2022/10/08 05:26:38;;;;;;;4.47;4.07;;;;;;;;;;4959944;28;20069;-69
2022/10/08 05:29:04;;;;;;;6.95;4.57;;;;;;;;;;4961232;28;20062;-70
2022/10/08 05:31:30;;;;;;;4.60;4.20;;;;;;;;;;4962397;28;20046;-70
2022/10/08 05:33:56;;;;;;;8.23;4.22;;;;;;;;;;4960414;28;20050;-69
2022/10/08 05:36:22;;;;;;;5.78;4.43;;;;;;;;;;4961089;28;20047;-70
2022/10/08 05:38:48;;;;;;;4.80;4.30;;;;;;;;;;4960118;28;20078;-69
2022/10/08 05:41:19;;;;;;;4.28;3.88;;;;;;;;;;4961088;28;20085;-70
2022/10/08 05:43:46;;;;;;;4.78;4.28;;;;;;;;;;4958648;28;20496;-69
2022/10/08 05:46:11;;;;;;;4.78;4.20;;;;;;;;;;4961343;28;20055;-69
2022/10/08 05:48:38;;;;;;;4.68;4.28;;;;;;;;;;4961576;28;20107;-69
2022/10/08 05:51:08;;;;;;;4.40;3.97;;;;;;;;;;4961344;28;20141;-69
2022/10/08 05:53:35;;;;;;;6.78;4.43;;;;;;;;;;4960533;28;20154;-69
2022/10/08 05:56:03;;;;;;;6.60;4.10;;;;;;;;;;4959175;28;20057;-70
2022/10/08 05:58:30;;;;;;;8.90;4.40;;;;;;;;;;4959763;28;20054;-69
2022/10/08 06:01:00;;;;;;;4.15;3.83;;;;;;;;;;4960103;28;20046;-69
2022/10/08 06:03:26;;;;;;;4.40;4.00;;;;;;;;;;4959711;28;20042;-70
2022/10/08 06:05:52;;;;;;;4.13;3.83;;;;;;;;;;4958852;28;20490;-70
2022/10/08 06:08:17;;;;;;;5.63;4.05;;;;;;;;;;4960863;28;20101;-70
2022/10/08 06:10:53;;;;;;;4.85;3.78;;;;;;;;;;4962469;28;20051;-70
2022/10/08 06:13:20;;;;;;;4.50;3.83;;;;;;;;;;4944011;28;20054;-69
2022/10/08 06:16:03;;;;;;;6.88;3.80;;;;;;;;;;4960962;28;20531;-69
2022/10/08 06:18:32;;;;;;;4.82;4.00;;;;;;;;;;4960773;28;20144;-70
2022/10/08 06:21:02;;;;;;;5.55;3.60;;;;;;;;;;4961288;28;20043;-69
2022/10/08 06:23:28;;;;;;;4.00;3.70;;;;;;;;;;4961677;28;20058;-67
2022/10/08 06:25:53;;;;;;;3.65;3.35;;;;;;;;;;4961535;28;20034;-67
2022/10/08 06:28:18;;;;;;;5.28;3.40;;;;;;;;;;4960623;28;20047;-67
2022/10/08 06:30:44;;;;;;;4.18;3.35;;;;;;;;;;4961283;28;20459;-71
2022/10/08 06:33:10;;;;;;;3.75;3.45;;;;;;;;;;4960783;28;20059;-70
2022/10/08 06:35:36;;;;;;;4.40;3.88;;;;;;;;;;4961480;28;20038;-69
2022/10/08 06:38:03;;;;;;;4.35;3.92;;;;;;;;;;4960694;28;20043;-68
2022/10/08 06:40:37;;;;;;;10.32;3.80;;;;;;;;;;4958368;28;20097;-69
2022/10/08 06:43:06;;;;;;;4.03;3.60;;;;;;;;;;4957457;28;20046;-69
2022/10/08 06:45:39;;;;;;;9.75;3.60;;;;;;;;;;4958817;28;20039;-70
2022/10/08 06:48:04;;;;;;;4.50;3.83;;;;;;;;;;4959606;28;20106;-69
2022/10/08 06:50:30;;;;;;;5.43;3.67;;;;;;;;;;4958483;28;20050;-70
2022/10/08 06:52:55;;;;;;;6.53;3.83;;;;;;;;;;4958557;28;20046;-69
2022/10/08 06:55:21;;;;;;;5.55;3.75;;;;;;;;;;4962940;28;20050;-70
2022/10/08 06:57:46;;;;;;;8.40;3.28;;;;;;;;;;4964820;28;20043;-69
2022/10/08 07:00:12;;;;;;;3.65;3.35;;;;;;;;;;4946796;28;20135;-69
2022/10/08 07:02:37;;;;;;;7.80;3.42;;;;;;;;;;4964685;28;20046;-68
2022/10/08 07:05:03;;;;;;;6.20;3.63;;;;;;;;;;4963318;28;20579;-69
2022/10/08 07:07:29;;;;;;;4.93;3.53;;;;;;;;;;4964110;28;20058;-69
2022/10/08 07:09:54;;;;;;;5.00;3.83;;;;;;;;;;4964546;28;21005;-70
2022/10/08 07:12:19;;;;;;;9.70;3.80;;;;;;;;;;4963622;28;20411;-69
2022/10/08 07:14:45;;;;;;;6.93;3.60;;;;;;;;;;4964130;28;20081;-69
2022/10/08 07:17:10;;;;;;;5.68;3.70;;;;;;;;;;4963827;28;20051;-69
2022/10/08 07:19:35;;;;;;;11.23;4.00;;;;;;;;;;4964272;28;20123;-70
2022/10/08 07:22:01;;;;;;;9.27;3.60;;;;;;;;;;4964641;28;20047;-70
2022/10/08 07:24:26;;;;;;;7.05;3.95;;;;;;;;;;4963159;28;20294;-70
2022/10/08 07:26:52;;;;;;;5.85;3.70;;;;;;;;;;4963453;28;20047;-71
2022/10/08 07:29:17;;;;;;;11.13;4.30;;;;;;;;;;4960203;28;20062;-70
2022/10/08 07:31:42;;;;;;;12.07;4.20;;;;;;;;;;4964374;28;20051;-70
2022/10/08 07:34:12;;;;;;;6.13;4.00;;;;;;;;;;4963363;28;20035;-70
2022/10/08 07:36:38;;;;;;;9.80;3.75;;;;;;;;;;4963612;28;20038;-70
2022/10/08 07:39:11;;;;;;;5.72;3.00;;;;;;;;;;4962597;28;20046;-70
2022/10/08 07:41:37;;;;;;;7.63;3.22;;;;;;;;;;4964030;28;20097;-71
2022/10/08 07:44:04;;;;;;;6.68;3.60;;;;;;;;;;4964257;28;20058;-70
2022/10/08 07:46:32;;;;;;;4.65;2.30;;;;;;;;;;4963343;28;20500;-70
2022/10/08 07:48:58;;;;;;;9.07;2.53;;;;;;;;;;4963377;28;20058;-70
2022/10/08 07:51:24;;;;;;;2.63;2.42;;;;;;;;;;4964360;28;20103;-69
2022/10/08 07:53:50;;;;;;;4.40;2.35;;;;;;;;;;4963962;28;20085;-70
2022/10/08 07:56:18;;;;;;;5.25;2.80;;;;;;;;;;4962296;28;20137;-70
2022/10/08 07:58:44;;;;;;;4.70;2.47;;;;;;;;;;4963516;28;20105;-70
2022/10/08 08:01:12;;;;;;;3.95;2.92;;;;;;;;;;4962490;28;20063;-70
2022/10/08 08:03:38;;;;;;;10.30;2.80;;;;;;;;;;4963951;28;20047;-70
2022/10/08 08:06:08;;;;;;;4.03;2.40;;;;;;;;;;4962730;28;20131;-69
2022/10/08 08:08:35;;;;;;;4.50;2.60;;;;;;;;;;4963327;28;20050;-69
2022/10/08 08:11:03;;;;;;;3.58;2.28;;;;;;;;;;4962827;28;20039;-70
2022/10/08 08:13:30;;;;;;;3.15;2.50;;;;;;;;;;4963212;28;20061;-70
2022/10/08 08:16:26;;;;;;;3.78;2.58;;;;;;;;;;4963451;28;20035;-70
2022/10/08 08:18:56;;;;;;;3.95;3.05;;;;;;;;;;4960479;28;20464;-70
2022/10/08 08:21:36;;;;;;;3.30;2.70;;;;;;;;;;4963276;28;20043;-70
2022/10/08 08:24:10;;;;;;;8.68;3.05;;;;;;;;;;4963400;28;20042;-69
2022/10/08 08:26:37;;;;;;;12.85;3.30;;;;;;;;;;4963765;28;20050;-69
2022/10/08 08:29:11;;;;;;;13.13;3.78;;;;;;;;;;4962204;28;20062;-70
2022/10/08 08:31:39;;;;;;;3.83;3.13;;;;;;;;;;4938271;28;20081;-71
2022/10/08 08:34:08;;;;;;;3.72;2.95;;;;;;;;;;4961513;28;20130;-70
2022/10/08 08:36:36;;;;;;;5.50;3.42;;;;;;;;;;4961639;28;20047;-70
2022/10/08 08:39:03;;;;;;;5.40;3.85;;;;;;;;;;4962434;28;20046;-70
2022/10/08 08:42:02;;;;;;;12.85;5.32;;;;;;;;;;4961815;28;20046;-70
2022/10/08 08:44:54;;;;;;;8.10;4.50;;;;;;;;;;4962644;28;20051;-70
2022/10/08 08:47:55;;;;;;;9.25;3.70;;;;;;;;;;4944503;28;20057;-71
2022/10/08 08:50:34;;;;;;;6.93;3.42;;;;;;;;;;4953701;28;20042;-69
2022/10/08 08:53:00;;;;;;;9.63;3.63;;;;;;;;;;4962086;28;20415;-71
2022/10/08 08:55:34;;;;;;;9.48;3.28;;;;;;;;;;4962385;28;20050;-70
2022/10/08 08:58:07;;;;;;;8.20;3.20;;;;;;;;;;4962605;28;20061;-70
2022/10/08 09:00:40;;;;;;;4.68;3.20;;;;;;;;;;4962484;28;20050;-70
2022/10/08 09:03:33;;;;;;;7.50;3.00;;;;;;;;;;4961054;28;20134;-69
2022/10/08 09:06:04;;;;;;;4.35;3.10;;;;;;;;;;4960431;28;20046;-71
2022/10/08 09:08:33;;;;;;;11.60;3.38;;;;;;;;;;4962442;28;20051;-71
2022/10/08 09:11:01;;;;;;;5.25;2.85;;;;;;;;;;4960768;28;21057;-73
2022/10/08 09:13:33;;;;;;;3.58;2.70;;;;;;;;;;4961636;28;20066;-70
2022/10/08 09:15:58;;;;;;;8.13;3.35;;;;;;;;;;4962461;28;20053;-71
2022/10/08 09:18:24;;;;;;;9.57;3.28;;;;;;;;;;4962743;28;20046;-72
2022/10/08 09:20:49;;;;;;;5.50;3.28;;;;;;;;;;4944562;28;20477;-71
2022/10/08 09:23:18;;;;;;;8.02;2.88;;;;;;;;;;4961829;28;20043;-71
2022/10/08 09:25:52;;;;;;;6.53;2.90;;;;;;;;;;4961788;28;20061;-71
2022/10/08 09:28:40;;;;;;;11.13;3.70;;;;;;;;;;4961891;28;20046;-70
2022/10/08 09:31:43;;;;;;;6.78;3.90;;;;;;;;;;4962018;28;20431;-71
2022/10/08 09:34:09;;;;;;;7.55;3.50;;;;;;;;;;4944007;28;20121;-70
2022/10/08 09:37:01;;;;;;;5.45;3.53;;;;;;;;;;4961374;28;20051;-70
2022/10/08 09:39:32;;;;;;;8.68;3.28;;;;;;;;;;4943854;28;20133;-72
2022/10/08 09:42:07;;;;;;;4.82;2.80;;;;;;;;;;4961172;28;20042;-70
2022/10/08 09:44:41;;;;;;;8.85;3.58;;;;;;;;;;4960609;28;20055;-69
2022/10/08 09:47:11;;;;;;;6.47;2.70;;;;;;;;;;4959408;28;20058;-70
2022/10/08 09:49:39;;;;;;;5.50;2.95;;;;;;;;;;4960738;28;20054;-71
2022/10/08 09:52:13;;;;;;;9.48;2.85;;;;;;;;;;4961509;28;20049;-70
2022/10/08 09:54:47;;;;;;;6.85;2.92;;;;;;;;;;4961472;28;20141;-70
2022/10/08 09:57:15;;;;;;;12.63;3.45;;;;;;;;;;4960059;28;20062;-70
2022/10/08 10:00:12;;;;;;;6.78;2.60;;;;;;;;;;4961738;28;20057;-71
2022/10/08 10:02:37;;;;;;;7.75;2.60;;;;;;;;;;4938586;28;20050;-72
2022/10/08 10:05:06;;;;;;;8.68;3.00;;;;;;;;;;4960286;28;20064;-71
2022/10/08 10:07:50;;;;;;;7.63;2.95;;;;;;;;;;4960073;28;20043;-71
2022/10/08 10:10:27;;;;;;;4.93;2.42;;;;;;;;;;4961239;28;20074;-71
2022/10/08 10:13:18;;;;;;;10.70;3.13;;;;;;;;;;4961244;28;20081;-71
2022/10/08 10:15:57;;;;;;;7.15;3.08;;;;;;;;;;4952706;28;20046;-69
2022/10/08 10:18:29;;;;;;;5.00;2.38;;;;;;;;;;4956143;28;20061;-68
2022/10/08 10:21:01;;;;;;;6.35;2.20;;;;;;;;;;4957874;28;20046;-70
2022/10/08 10:23:35;;;;;;;6.95;2.53;;;;;;;;;;4961235;28;20050;-72
2022/10/08 10:26:29;;;;;;;12.18;2.47;;;;;;;;;;4959669;28;20043;-72
2022/10/08 10:28:57;;;;;;;7.45;2.95;;;;;;;;;;4959350;28;20404;-69
2022/10/08 10:31:37;;;;;;;8.07;2.30;;;;;;;;;;4964480;28;20054;-69
2022/10/08 10:34:20;;;;;;;6.97;2.50;;;;;;;;;;4964914;28;20243;-69
2022/10/08 10:36:52;;;;;;;7.97;2.65;;;;;;;;;;4964736;28;20109;-69
2022/10/08 10:40:05;;;;;;;7.20;2.83;;;;;;;;;;4960211;28;20059;-69
2022/10/08 10:42:45;;;;;;;5.50;2.50;;;;;;;;;;4915488;28;20484;-69
2022/10/08 10:45:13;;;;;;;4.95;2.45;;;;;;;;;;4961484;28;20046;-69
2022/10/08 10:47:39;;;;;;;11.52;3.17;;;;;;;;;;4963550;28;20047;-68
2022/10/08 10:50:11;;;;;;;8.90;2.70;;;;;;;;;;4963199;28;20043;-73
2022/10/08 10:52:40;;;;;;;8.95;2.85;;;;;;;;;;4962115;28;20050;-70
2022/10/08 10:55:14;;;;;;;10.38;2.40;;;;;;;;;;4960997;28;20046;-71
2022/10/08 10:58:03;;;;;;;9.70;2.78;;;;;;;;;;4962117;28;20057;-70
2022/10/08 11:00:34;;;;;;;14.43;3.00;;;;;;;;;;4962430;28;20051;-71
2022/10/08 11:03:09;;;;;;;6.20;2.37;;;;;;;;;;4961544;28;20057;-71
2022/10/08 11:05:36;;;;;;;8.40;2.67;;;;;;;;;;4963659;28;20054;-71
2022/10/08 11:08:16;;;;;;;9.48;2.38;;;;;;;;;;4964368;28;20047;-70
2022/10/08 11:11:09;;;;;;;9.20;2.70;;;;;;;;;;4964458;28;20050;-70
2022/10/08 11:13:59;;;;;;;9.32;3.00;;;;;;;;;;4947298;28;20050;-70
2022/10/08 11:16:24;;;;;;;9.55;2.78;;;;;;;;;;4964204;28;20219;-71
2022/10/08 11:19:09;;;;;;;7.43;3.03;;;;;;;;;;4963788;28;20051;-70
2022/10/08 11:21:40;;;;;;;12.90;3.60;;;;;;;;;;4963766;28;20141;-69
2022/10/08 11:24:32;;;;;;;9.82;3.60;;;;;;;;;;4964816;28;20578;-69
2022/10/08 11:27:00;;;;;;;;;;;;;;;;;;4964491;28;20051;-70
2022/10/08 11:29:47;;;;;;;10.10;3.15;;;;;;;;;;4964492;28;19921;-69
2022/10/08 11:32:15;;;;;;;7.63;3.40;;;;;;;;;;4964708;28;20451;-69
2022/10/08 11:35:07;;;;;;;13.73;3.20;;;;;;;;;;4964443;28;20070;-69
2022/10/08 11:37:47;;;;;;;12.57;3.20;;;;;;;;;;4927867;28;20050;-68
2022/10/08 11:40:33;;;;;;;7.70;3.20;;;;;;;;;;4961607;28;20165;-68
2022/10/08 11:43:11;;;;;;;8.32;3.33;;;;;;;;;;4963005;28;20074;-69
2022/10/08 11:45:38;;;;;;;9.38;3.58;;;;;;;;;;4963572;28;20058;-69
2022/10/08 11:48:27;;;;;;;8.05;3.58;;;;;;;;;;4962797;28;20049;-70
2022/10/08 11:51:13;;;;;;;8.38;3.50;;;;;;;;;;4963392;28;20051;-70
2022/10/08 11:53:38;;;;;;;6.72;3.35;;;;;;;;;;4969022;28;20046;-70
2022/10/08 11:56:09;;;;;;;12.02;3.30;;;;;;;;;;4963512;28;20047;-70
2022/10/08 11:58:34;;;;;;;9.20;3.22;;;;;;;;;;4962300;28;20552;-70
2022/10/08 12:01:03;;;;;;;8.55;3.00;;;;;;;;;;4962311;28;20492;-70
2022/10/08 12:03:32;;;;;;;8.32;3.25;;;;;;;;;;4961936;28;20038;-69
2022/10/08 12:06:11;;;;;;;14.27;4.13;;;;;;;;;;4956270;28;20046;-69
2022/10/08 12:08:52;;;;;;;6.93;3.75;;;;;;;;;;4961012;28;20042;-69
2022/10/08 12:11:42;;;;;;;12.35;3.72;;;;;;;;;;4961506;28;20055;-69
2022/10/08 12:14:13;;;;;;;13.15;3.72;;;;;;;;;;4960661;28;20209;-68
2022/10/08 12:16:54;;;;;;;6.65;3.47;;;;;;;;;;4960191;28;20054;-70
2022/10/08 12:19:34;;;;;;;13.98;4.07;;;;;;;;;;4961270;28;20105;-68
2022/10/08 12:22:23;;;;;;;12.90;3.92;;;;;;;;;;4960157;28;20043;-69
2022/10/08 12:24:53;;;;;;;11.75;3.85;;;;;;;;;;4959160;28;20071;-69
2022/10/08 12:27:19;;;;;;;10.43;3.92;;;;;;;;;;4959464;28;20257;-69
2022/10/08 12:30:03;;;;;;;10.48;4.13;;;;;;;;;;4959385;28;20966;-68
2022/10/08 12:32:49;;;;;;;9.63;3.33;;;;;;;;;;4958405;28;20097;-68
2022/10/08 12:35:24;;;;;;;10.50;3.70;;;;;;;;;;4960023;28;20074;-68
2022/10/08 12:37:55;;;;;;;8.27;4.25;;;;;;;;;;4959554;28;20454;-68
2022/10/08 12:40:23;;;;;;;9.80;3.97;;;;;;;;;;4961593;28;20054;-69
2022/10/08 12:42:57;;;;;;;10.40;3.90;;;;;;;;;;4959911;28;20141;-69
2022/10/08 12:45:33;;;;;;;7.05;4.07;;;;;;;;;;4959842;28;20341;-68
2022/10/08 12:48:18;;;;;;;11.23;4.07;;;;;;;;;;4960366;28;20109;-69
2022/10/08 12:51:05;;;;;;;9.35;3.85;;;;;;;;;;4959447;28;20116;-70
2022/10/08 12:53:32;;;;;;;14.95;3.97;;;;;;;;;;4959835;28;20050;-72
2022/10/08 12:55:57;;;;;;;13.52;4.30;;;;;;;;;;4960314;28;20391;-71
2022/10/08 12:58:32;;;;;;;11.18;4.55;;;;;;;;;;4960272;28;20058;-70
2022/10/08 13:01:03;;;;;;;12.15;3.85;;;;;;;;;;4961079;28;20046;-70
2022/10/08 13:03:28;;;;;;;15.50;4.25;;;;;;;;;;4959770;28;20054;-70
2022/10/08 13:05:55;;;;;;;10.05;3.97;;;;;;;;;;4959603;28;20054;-70
2022/10/08 13:08:36;;;;;;;10.52;3.83;;;;;;;;;;4960545;28;20047;-70
2022/10/08 13:11:11;;;;;;;20.55;4.15;;;;;;;;;;4942250;28;20117;-70
2022/10/08 13:13:39;;;;;;;11.18;3.92;;;;;;;;;;4960562;28;20054;-71
2022/10/08 13:16:12;;;;;;;10.13;4.70;;;;;;;;;;4959982;28;20070;-72
2022/10/08 13:18:41;;;;;;;8.63;3.80;;;;;;;;;;4961321;28;20125;-70
2022/10/08 13:21:24;;;;;;;17.15;4.45;;;;;;;;;;4962208;28;20062;-70
2022/10/08 13:23:50;;;;;;;11.55;3.97;;;;;;;;;;4961407;28;20050;-70
2022/10/08 13:26:48;;;;;;;12.32;4.05;;;;;;;;;;4961232;28;20052;-70
2022/10/08 13:29:25;;;;;;;10.02;4.68;;;;;;;;;;4945915;28;20051;-71
2022/10/08 13:32:04;;;;;;;17.58;4.63;;;;;;;;;;4962329;28;20057;-71
2022/10/08 13:34:38;;;;;;;12.32;4.50;;;;;;;;;;4961686;28;20503;-70
2022/10/08 13:37:11;;;;;;;17.60;4.78;;;;;;;;;;4961173;28;20050;-70
2022/10/08 13:39:40;;;;;;;9.82;5.00;;;;;;;;;;4961907;28;20035;-70
2022/10/08 13:42:17;;;;;;;9.68;4.80;;;;;;;;;;4961484;28;20758;-70
2022/10/08 13:44:43;;;;;;;10.85;5.10;;;;;;;;;;4960006;28;20093;-68
2022/10/08 13:47:17;;;;;;;9.15;5.05;;;;;;;;;;4961633;28;20707;-68
2022/10/08 13:49:43;;;;;;;12.20;5.13;;;;;;;;;;4961672;28;20050;-69
2022/10/08 13:52:22;;;;;;;15.38;5.00;;;;;;;;;;4962039;28;20043;-69
2022/10/08 13:54:52;;;;;;;10.52;5.10;;;;;;;;;;4961030;28;20049;-68
2022/10/08 13:57:17;;;;;;;12.15;5.63;;;;;;;;;;4962125;28;20043;-70
2022/10/08 13:59:43;;;;;;;13.80;5.47;;;;;;;;;;4961185;28;20070;-69
2022/10/08 14:02:12;;;;;;;17.48;6.28;;;;;;;;;;4961960;28;20538;-69
2022/10/08 14:04:38;;;;;;;11.57;5.88;;;;;;;;;;4959989;28;20511;-69
2022/10/08 14:07:04;;;;;;;13.70;5.95;;;;;;;;;;4962091;28;20054;-70
2022/10/08 14:09:30;;;;;;;17.17;6.03;;;;;;;;;;4961067;28;20518;-71
2022/10/08 14:11:58;;;;;;;15.65;6.25;;;;;;;;;;4961428;28;20051;-70
2022/10/08 14:14:25;;;;;;;14.68;7.07;;;;;;;;;;4961156;28;20054;-70
2022/10/08 14:16:52;;;;;;;11.75;6.78;;;;;;;;;;4961694;28;20056;-71
2022/10/08 14:19:19;;;;;;;14.77;6.95;;;;;;;;;;4961741;28;20094;-70
2022/10/08 14:21:46;;;;;;;15.65;6.40;;;;;;;;;;4961149;28;20571;-69
2022/10/08 14:24:11;;;;;;;15.70;6.90;;;;;;;;;;4960683;28;20463;-71
2022/10/08 14:26:37;;;;;;;11.75;7.13;;;;;;;;;;4958983;28;20034;-70
2022/10/08 14:29:02;;;;;;;11.27;6.50;;;;;;;;;;4958633;28;20057;-69
2022/10/08 14:31:28;;;;;;;17.27;7.07;;;;;;;;;;4958534;28;21315;-71
2022/10/08 14:33:54;;;;;;;13.55;6.57;;;;;;;;;;4961205;28;20047;-71
2022/10/08 14:36:23;;;;;;;16.75;6.75;;;;;;;;;;4960602;28;20047;-70
2022/10/08 14:38:48;;;;;;;15.60;7.18;;;;;;;;;;4961792;28;20050;-71
2022/10/08 14:41:15;;;;;;;15.30;7.10;;;;;;;;;;4961171;28;20053;-70
2022/10/08 14:47:27;;;;;;;17.45;8.27;;;;;;;;;;4961426;28;20609;-69
2022/10/08 14:49:53;;;;;;;14.30;8.13;;;;;;;;;;4961396;28;20078;-70
2022/10/08 14:52:19;;;;;;;13.57;7.82;;;;;;;;;;4943999;28;20065;-71
2022/10/08 14:54:45;;;;;;;17.25;8.93;;;;;;;;;;4960400;28;20121;-69
2022/10/08 14:57:11;;;;;;;23.75;8.98;;;;;;;;;;4960994;28;20088;-69
2022/10/08 14:59:38;;;;;;;14.50;7.80;;;;;;;;;;4960645;28;20054;-70
2022/10/08 15:02:03;;;;;;;10.75;8.30;;;;;;;;;;4961313;28;20410;-69
2022/10/08 15:04:29;;;;;;;23.13;8.70;;;;;;;;;;4960277;28;20464;-69
2022/10/08 15:06:54;;;;;;;17.73;9.75;;;;;;;;;;4960553;28;20494;-69